createdAt,value
2023-01-31T00:01:37.532Z,3.90
2023-01-31T00:03:40.054Z,3.87
2023-01-31T00:05:41.835Z,3.86
2023-01-31T00:07:43.490Z,3.86
2023-01-31T00:09:45.077Z,3.86
2023-01-31T00:11:46.715Z,3.84
2023-01-31T00:13:49.521Z,3.84
2023-01-31T00:15:51.249Z,3.83
2023-01-31T00:17:54.794Z,3.81
2023-01-31T00:19:56.425Z,3.81
2023-01-31T00:22:00.477Z,3.79
2023-01-31T00:24:03.215Z,3.79
2023-01-31T00:26:11.512Z,3.78
2023-01-31T00:28:13.178Z,3.76
2023-01-31T00:30:15.127Z,3.75
2023-01-31T00:32:16.870Z,3.73
2023-01-31T00:34:21.707Z,3.72
2023-01-31T00:36:26.534Z,3.71
2023-01-31T00:38:28.486Z,3.71
2023-01-31T00:40:30.115Z,3.70
2023-01-31T00:42:31.693Z,3.69
2023-01-31T00:44:33.771Z,3.68
2023-01-31T00:46:36.676Z,3.66
2023-01-31T00:48:41.562Z,3.65
2023-01-31T00:50:44.470Z,3.64
2023-01-31T00:52:46.081Z,3.63
2023-01-31T00:54:47.595Z,3.62
2023-01-31T00:56:49.191Z,3.61
2023-01-31T00:58:51.169Z,3.58
2023-01-31T01:00:52.846Z,3.59
2023-01-31T01:02:54.419Z,3.58
2023-01-31T01:04:56.162Z,3.56
2023-01-31T01:06:59.283Z,3.55
2023-01-31T01:09:01.285Z,3.55
2023-01-31T01:11:06.591Z,3.54
2023-01-31T01:13:08.503Z,3.54
2023-01-31T01:15:10.936Z,3.53
2023-01-31T01:17:12.568Z,3.54
2023-01-31T01:19:18.551Z,3.51
2023-01-31T01:21:23.085Z,3.52
2023-01-31T01:23:26.021Z,3.48
2023-01-31T01:25:27.765Z,3.48
2023-01-31T01:27:29.523Z,3.47
2023-01-31T01:29:31.485Z,3.46
2023-01-31T01:31:33.209Z,3.44
2023-01-31T01:33:35.244Z,3.45
2023-01-31T01:35:37.157Z,3.43
2023-01-31T01:37:39.113Z,3.42
2023-01-31T01:39:42.467Z,3.40
2023-01-31T01:41:45.798Z,3.39
2023-01-31T01:43:49.852Z,3.39
2023-01-31T01:45:54.409Z,3.39
2023-01-31T01:47:59.960Z,3.38
2023-01-31T01:50:07.756Z,3.37
2023-01-31T01:52:12.504Z,3.36
2023-01-31T01:54:19.365Z,3.33
2023-01-31T01:56:30.287Z,3.34
2023-01-31T01:58:36.890Z,3.33
2023-01-31T02:00:39.079Z,3.32
2023-01-31T02:02:41.789Z,3.31
2023-01-31T02:04:47.669Z,3.32
2023-01-31T02:06:50.195Z,3.32
2023-01-31T02:08:54.085Z,3.30
2023-01-31T02:10:59.137Z,3.31
2023-01-31T02:13:03.072Z,3.30
2023-01-31T02:15:06.650Z,3.28
2023-01-31T02:17:12.686Z,3.29
2023-01-31T02:19:22.298Z,3.27
2023-01-31T02:22:02.895Z,3.30
2023-01-31T02:24:35.168Z,3.28
2023-01-31T02:27:11.988Z,3.26
2023-01-31T02:29:42.017Z,3.25
2023-01-31T02:32:19.875Z,3.25
2023-01-31T02:34:30.022Z,3.23
2023-01-31T02:36:42.429Z,3.23
2023-01-31T02:38:55.885Z,3.22
2023-01-31T02:41:06.011Z,3.21
2023-01-31T02:43:13.529Z,3.23
2023-01-31T02:45:28.114Z,3.23
2023-01-31T02:47:43.882Z,3.24
2023-01-31T02:49:52.101Z,3.22
2023-01-31T02:51:54.863Z,3.24
2023-01-31T02:54:03.795Z,3.25
2023-01-31T02:56:10.741Z,3.24
2023-01-31T02:58:16.502Z,3.25
2023-01-31T03:00:19.981Z,3.24
2023-01-31T03:02:24.777Z,3.26
2023-01-31T03:04:31.613Z,3.26
2023-01-31T03:06:55.858Z,3.29
2023-01-31T03:09:04.831Z,3.27
2023-01-31T03:11:08.586Z,3.26
2023-01-31T03:13:24.311Z,3.28
2023-01-31T03:15:39.223Z,3.28
2023-01-31T03:17:53.144Z,3.27
2023-01-31T03:20:02.699Z,3.27
2023-01-31T03:22:11.920Z,3.28
2023-01-31T03:24:15.375Z,3.25
2023-01-31T03:26:18.875Z,3.25
2023-01-31T03:28:26.440Z,3.26
2023-01-31T03:30:39.656Z,3.26
2023-01-31T03:32:47.728Z,3.25
2023-01-31T03:34:50.488Z,3.24
2023-01-31T03:36:57.700Z,3.26
2023-01-31T03:39:21.764Z,3.27
2023-01-31T03:41:31.084Z,3.25
2023-01-31T03:43:38.348Z,3.26
2023-01-31T03:45:47.360Z,3.25
2023-01-31T03:47:51.372Z,3.24
2023-01-31T03:49:56.587Z,3.25
2023-01-31T03:52:04.642Z,3.25
2023-01-31T03:54:11.563Z,3.25
2023-01-31T03:56:18.719Z,3.26
2023-01-31T03:58:25.267Z,3.25
2023-01-31T04:00:28.355Z,3.25
2023-01-31T04:02:33.981Z,3.26
2023-01-31T04:04:44.336Z,3.24
2023-01-31T04:06:46.001Z,3.24
2023-01-31T04:08:47.682Z,3.25
2023-01-31T04:10:51.453Z,3.25
2023-01-31T04:12:53.425Z,3.24
2023-01-31T04:14:55.197Z,3.25
2023-01-31T04:16:56.810Z,3.25
2023-01-31T04:18:58.407Z,3.25
2023-01-31T04:21:00.011Z,3.24
2023-01-31T04:23:03.611Z,3.24
2023-01-31T04:25:06.289Z,3.24
2023-01-31T04:27:09.256Z,3.25
2023-01-31T04:29:12.073Z,3.23
2023-01-31T04:31:13.858Z,3.23
2023-01-31T04:33:15.625Z,3.24
2023-01-31T04:35:17.216Z,3.24
2023-01-31T04:37:18.979Z,3.24
2023-01-31T04:39:20.517Z,3.24
2023-01-31T04:41:22.464Z,3.25
2023-01-31T04:43:25.418Z,3.26
2023-01-31T04:45:27.243Z,3.26
2023-01-31T04:47:29.919Z,3.26
2023-01-31T04:49:31.770Z,3.24
2023-01-31T04:51:33.747Z,3.26
2023-01-31T04:53:35.760Z,3.27
2023-01-31T04:55:37.547Z,3.26
2023-01-31T04:57:39.075Z,3.27
2023-01-31T04:59:42.045Z,3.25
2023-01-31T05:01:43.669Z,3.27
2023-01-31T05:03:45.262Z,3.26
2023-01-31T05:05:48.207Z,3.27
2023-01-31T05:07:49.979Z,3.27
2023-01-31T05:09:51.689Z,3.25
2023-01-31T05:11:53.350Z,3.27
2023-01-31T05:13:56.997Z,3.27
2023-01-31T05:16:01.287Z,3.26
2023-01-31T05:18:03.501Z,3.27
2023-01-31T05:20:06.801Z,3.27
2023-01-31T05:22:08.511Z,3.29
2023-01-31T05:24:10.153Z,3.29
2023-01-31T05:26:12.186Z,3.30
2023-01-31T05:28:14.169Z,3.29
2023-01-31T05:30:16.045Z,3.29
2023-01-31T05:32:19.447Z,3.30
2023-01-31T05:34:21.784Z,3.28
2023-01-31T05:36:23.455Z,3.30
2023-01-31T05:38:25.056Z,3.29
2023-01-31T05:40:28.122Z,3.29
2023-01-31T05:42:31.099Z,3.30
2023-01-31T05:44:33.374Z,3.29
2023-01-31T05:46:36.789Z,3.31
2023-01-31T05:48:39.719Z,3.30
2023-01-31T05:50:41.409Z,3.31
2023-01-31T05:52:43.041Z,3.33
2023-01-31T05:54:44.698Z,3.32
2023-01-31T05:56:47.212Z,3.32
2023-01-31T05:58:49.195Z,3.33
2023-01-31T06:00:50.832Z,3.32
2023-01-31T06:02:52.665Z,3.32
2023-01-31T06:04:55.776Z,3.33
2023-01-31T06:06:57.429Z,3.33
2023-01-31T06:08:58.982Z,3.32
2023-01-31T06:11:01.756Z,3.33
2023-01-31T06:13:03.888Z,3.34
2023-01-31T06:15:06.878Z,3.33
2023-01-31T06:17:08.554Z,3.33
2023-01-31T06:19:10.047Z,3.36
2023-01-31T06:21:13.129Z,3.36
2023-01-31T06:23:14.951Z,3.37
2023-01-31T06:25:17.160Z,3.37
2023-01-31T06:27:18.683Z,3.37
2023-01-31T06:29:20.369Z,3.37
2023-01-31T06:31:22.246Z,3.38
2023-01-31T06:33:31.461Z,3.39
2023-01-31T06:35:40.693Z,3.38
2023-01-31T06:37:43.629Z,3.39
2023-01-31T06:39:45.355Z,3.40
2023-01-31T06:41:46.940Z,3.40
2023-01-31T06:43:48.843Z,3.40
2023-01-31T06:45:50.464Z,3.41
2023-01-31T06:47:52.348Z,3.40
2023-01-31T06:49:54.423Z,3.40
2023-01-31T06:51:56.740Z,3.42
2023-01-31T06:53:59.905Z,3.39
2023-01-31T06:56:01.568Z,3.40
2023-01-31T06:58:03.374Z,3.40
2023-01-31T07:00:06.359Z,3.37
2023-01-31T07:02:10.234Z,3.37
2023-01-31T07:04:11.962Z,3.37
2023-01-31T07:06:13.820Z,3.35
2023-01-31T07:08:15.562Z,3.36
2023-01-31T07:10:18.923Z,3.35
2023-01-31T07:12:20.643Z,3.33
2023-01-31T07:14:22.202Z,3.34
2023-01-31T07:16:24.235Z,3.34
2023-01-31T07:18:26.359Z,3.33
2023-01-31T07:20:28.017Z,3.35
2023-01-31T07:22:30.127Z,3.35
2023-01-31T07:24:32.364Z,3.36
2023-01-31T07:26:35.529Z,3.36
2023-01-31T07:28:37.177Z,3.39
2023-01-31T07:30:41.699Z,3.40
2023-01-31T07:32:43.508Z,3.41
2023-01-31T07:34:45.157Z,3.43
2023-01-31T07:36:46.904Z,3.44
2023-01-31T07:38:48.660Z,3.44
2023-01-31T07:40:50.876Z,3.47
2023-01-31T07:42:58.147Z,3.50
2023-01-31T07:45:06.995Z,3.51
2023-01-31T07:47:18.614Z,3.53
2023-01-31T07:49:20.631Z,3.53
2023-01-31T07:51:22.376Z,3.56
2023-01-31T07:53:24.642Z,3.59
2023-01-31T07:55:26.655Z,3.59
2023-01-31T07:57:31.306Z,3.63
2023-01-31T07:59:34.210Z,3.65
2023-01-31T08:01:36.488Z,3.68
2023-01-31T08:03:38.429Z,3.69
2023-01-31T08:05:40.265Z,3.71
2023-01-31T08:07:42.038Z,3.72
2023-01-31T08:09:43.876Z,3.76
2023-01-31T08:11:46.092Z,3.77
2023-01-31T08:13:48.015Z,3.76
2023-01-31T08:15:52.897Z,3.80
2023-01-31T08:17:54.633Z,3.83
2023-01-31T08:19:57.453Z,3.84
2023-01-31T08:21:58.972Z,3.86
2023-01-31T08:24:00.568Z,3.88
2023-01-31T08:26:04.660Z,3.90
2023-01-31T08:28:06.734Z,3.92
2023-01-31T08:30:09.753Z,3.95
2023-01-31T08:32:12.907Z,3.98
2023-01-31T08:34:14.895Z,4.01
2023-01-31T08:36:18.819Z,4.02
2023-01-31T08:38:20.879Z,4.04
2023-01-31T08:40:23.304Z,4.07
2023-01-31T08:42:24.932Z,4.08
2023-01-31T08:44:28.292Z,4.09
2023-01-31T08:46:32.626Z,4.12
2023-01-31T08:48:39.699Z,4.15
2023-01-31T08:50:41.687Z,4.17
2023-01-31T08:52:43.653Z,4.19
2023-01-31T08:54:45.185Z,4.21
2023-01-31T08:56:46.803Z,4.23
2023-01-31T08:58:48.884Z,4.26
2023-01-31T09:00:50.675Z,4.29
2023-01-31T09:02:53.454Z,4.31
2023-01-31T09:04:56.714Z,4.33
2023-01-31T09:06:59.566Z,4.35
2023-01-31T09:09:01.560Z,4.38
2023-01-31T09:11:03.870Z,4.41
2023-01-31T09:13:05.637Z,4.45
2023-01-31T09:15:08.355Z,4.48
2023-01-31T09:17:10.020Z,4.51
2023-01-31T09:19:11.637Z,4.54
2023-01-31T09:21:16.798Z,4.57
2023-01-31T09:23:18.554Z,4.59
2023-01-31T09:25:30.398Z,4.61
2023-01-31T09:27:39.668Z,4.62
2023-01-31T09:29:41.481Z,4.63
2023-01-31T09:31:43.355Z,4.66
2023-01-31T09:33:45.643Z,4.67
2023-01-31T09:35:56.047Z,4.69
2023-01-31T09:38:01.080Z,4.70
2023-01-31T09:40:02.709Z,4.69
2023-01-31T09:42:18.394Z,4.70
2023-01-31T09:44:25.925Z,4.71
2023-01-31T09:46:33.255Z,4.70
2023-01-31T09:48:38.795Z,4.71
2023-01-31T09:50:43.599Z,4.71
2023-01-31T09:52:45.534Z,4.70
2023-01-31T09:54:49.589Z,4.72
2023-01-31T09:57:00.906Z,4.73
2023-01-31T09:59:17.969Z,4.74
2023-01-31T10:01:25.558Z,4.75
2023-01-31T10:03:52.059Z,4.78
2023-01-31T10:05:58.957Z,4.77
2023-01-31T10:08:10.940Z,4.79
2023-01-31T10:10:33.771Z,4.82
2023-01-31T10:12:42.857Z,4.82
2023-01-31T10:14:49.327Z,4.82
2023-01-31T10:17:00.791Z,4.84
2023-01-31T10:19:06.473Z,4.84
2023-01-31T10:21:14.179Z,4.86
2023-01-31T10:23:25.947Z,4.85
2023-01-31T10:25:34.720Z,4.89
2023-01-31T10:27:46.529Z,4.89
2023-01-31T10:29:54.129Z,4.91
2023-01-31T10:32:01.006Z,4.92
2023-01-31T10:34:12.297Z,4.94
2023-01-31T10:36:20.863Z,4.94
2023-01-31T10:38:28.834Z,4.95
2023-01-31T10:40:36.584Z,4.97
2023-01-31T10:42:40.162Z,4.97
2023-01-31T10:44:47.235Z,4.99
2023-01-31T10:46:48.905Z,5.00
2023-01-31T10:48:50.733Z,5.03
2023-01-31T10:51:00.403Z,5.05
2023-01-31T10:53:14.106Z,5.06
2023-01-31T10:55:41.480Z,5.09
2023-01-31T10:57:44.561Z,5.07
2023-01-31T10:59:49.587Z,5.09
2023-01-31T11:01:51.414Z,5.09
2023-01-31T11:03:55.562Z,5.10
2023-01-31T11:05:58.387Z,5.11
2023-01-31T11:08:04.617Z,5.11
2023-01-31T11:10:23.664Z,5.14
2023-01-31T11:12:41.246Z,5.15
2023-01-31T11:14:44.456Z,5.12
2023-01-31T11:16:46.203Z,5.12
2023-01-31T11:18:50.708Z,5.15
2023-01-31T11:20:52.614Z,5.15
2023-01-31T11:22:56.151Z,5.16
2023-01-31T11:25:00.105Z,5.18
2023-01-31T11:27:05.711Z,5.19
2023-01-31T11:29:12.448Z,5.19
2023-01-31T11:31:29.923Z,5.20
2023-01-31T11:33:42.093Z,5.21
2023-01-31T11:35:52.568Z,5.20
2023-01-31T11:37:55.987Z,5.20
2023-01-31T11:39:59.358Z,5.22
2023-01-31T11:42:11.912Z,5.22
2023-01-31T11:44:16.214Z,5.23
2023-01-31T11:46:19.266Z,5.20
2023-01-31T11:48:24.232Z,5.22
2023-01-31T11:50:32.900Z,5.23
2023-01-31T11:52:35.531Z,5.21
2023-01-31T11:54:37.426Z,5.23
2023-01-31T11:56:39.461Z,5.24
2023-01-31T11:58:43.489Z,5.22
2023-01-31T12:00:54.889Z,5.26
2023-01-31T12:03:06.878Z,5.25
2023-01-31T12:05:12.566Z,5.25
2023-01-31T12:07:23.197Z,5.27
2023-01-31T12:09:27.017Z,5.28
2023-01-31T12:11:30.719Z,5.27
2023-01-31T12:13:45.047Z,5.26
2023-01-31T12:15:52.631Z,5.28
2023-01-31T12:17:54.443Z,5.30
2023-01-31T12:20:27.122Z,5.30
2023-01-31T12:22:36.106Z,5.28
2023-01-31T12:24:49.418Z,5.30
2023-01-31T12:26:55.404Z,5.28
2023-01-31T12:29:17.359Z,5.29
2023-01-31T12:31:47.631Z,5.32
2023-01-31T12:34:02.687Z,5.31
2023-01-31T12:36:17.649Z,5.30
2023-01-31T12:38:39.341Z,5.29
2023-01-31T12:40:51.385Z,5.28
2023-01-31T12:42:57.170Z,5.26
2023-01-31T12:45:12.254Z,5.26
2023-01-31T12:47:29.468Z,5.25
2023-01-31T12:49:50.526Z,5.24
2023-01-31T12:52:03.371Z,5.24
2023-01-31T12:54:20.076Z,5.25
2023-01-31T12:56:38.027Z,5.24
2023-01-31T12:58:49.442Z,5.23
2023-01-31T13:01:01.463Z,5.24
2023-01-31T13:03:32.723Z,5.26
2023-01-31T13:05:43.616Z,5.23
2023-01-31T13:07:52.813Z,5.24
2023-01-31T13:10:01.439Z,5.24
2023-01-31T13:12:08.502Z,5.25
2023-01-31T13:14:16.029Z,5.25
2023-01-31T13:16:23.416Z,5.26
2023-01-31T13:18:26.246Z,5.27
2023-01-31T13:20:33.514Z,5.26
2023-01-31T13:22:45.153Z,5.29
2023-01-31T13:24:58.563Z,5.30
2023-01-31T13:27:06.340Z,5.30
2023-01-31T13:29:16.243Z,5.31
2023-01-31T13:31:22.822Z,5.31
2023-01-31T13:33:31.274Z,5.32
2023-01-31T13:35:39.677Z,5.34
2023-01-31T13:37:45.606Z,5.34
2023-01-31T13:39:52.276Z,5.34
2023-01-31T13:41:54.091Z,5.37
2023-01-31T13:43:57.278Z,5.38
2023-01-31T13:46:03.991Z,5.39
2023-01-31T13:48:08.558Z,5.39
2023-01-31T13:50:32.725Z,5.43
2023-01-31T13:52:39.990Z,5.43
2023-01-31T13:54:45.432Z,5.43
2023-01-31T13:56:53.705Z,5.45
2023-01-31T13:58:56.996Z,5.44
2023-01-31T14:01:03.968Z,5.47
2023-01-31T14:03:08.639Z,5.49
2023-01-31T14:05:53.143Z,5.52
2023-01-31T14:08:28.014Z,5.52
2023-01-31T14:10:37.705Z,5.52
2023-01-31T14:12:40.779Z,5.52
2023-01-31T14:14:44.773Z,5.52
2023-01-31T14:16:47.613Z,5.53
2023-01-31T14:18:49.234Z,5.55
2023-01-31T14:20:50.948Z,5.55
2023-01-31T14:23:22.649Z,5.58
2023-01-31T14:25:42.269Z,5.60
2023-01-31T14:28:00.276Z,5.61
2023-01-31T14:30:17.212Z,5.61
2023-01-31T14:32:29.826Z,5.62
2023-01-31T14:34:31.959Z,5.63
2023-01-31T14:36:53.206Z,5.65
2023-01-31T14:39:29.792Z,5.70
2023-01-31T14:41:48.183Z,5.67
2023-01-31T14:44:06.504Z,5.70
2023-01-31T14:46:20.998Z,5.72
2023-01-31T14:48:58.507Z,5.76
2023-01-31T14:51:14.978Z,5.74
2023-01-31T14:53:40.922Z,5.77
2023-01-31T14:55:59.635Z,5.78
2023-01-31T14:58:04.017Z,5.77
2023-01-31T15:00:20.252Z,5.82
2023-01-31T15:02:36.414Z,5.82
2023-01-31T15:04:40.460Z,5.84
2023-01-31T15:06:42.154Z,5.86
2023-01-31T15:08:46.244Z,5.86
2023-01-31T15:10:57.602Z,5.90
2023-01-31T15:13:00.942Z,5.91
2023-01-31T15:15:03.332Z,5.92
2023-01-31T15:19:47.490Z,5.87
2023-01-31T15:21:54.241Z,5.99
2023-01-31T15:23:56.740Z,6.05
2023-01-31T15:26:00.809Z,6.06
2023-01-31T15:28:03.787Z,6.08
2023-01-31T15:30:09.812Z,6.09
2023-01-31T15:32:21.136Z,6.10
2023-01-31T15:34:29.666Z,6.12
2023-01-31T15:36:38.719Z,6.14
2023-01-31T15:38:47.786Z,6.16
2023-01-31T15:41:05.420Z,6.19
2023-01-31T15:43:17.895Z,6.18
2023-01-31T15:45:23.236Z,6.20
2023-01-31T15:47:25.398Z,6.21
2023-01-31T15:49:39.470Z,6.21
2023-01-31T15:51:43.876Z,6.25
2023-01-31T15:53:46.179Z,6.23
2023-01-31T15:55:51.642Z,6.25
2023-01-31T15:57:56.649Z,6.26
2023-01-31T16:00:00.391Z,6.28
2023-01-31T16:02:04.421Z,6.30
2023-01-31T16:04:06.453Z,6.32
2023-01-31T16:06:24.299Z,6.35
2023-01-31T16:08:31.982Z,6.35
2023-01-31T16:10:33.680Z,6.35
2023-01-31T16:12:44.259Z,6.38
2023-01-31T16:14:48.980Z,6.39
2023-01-31T16:16:54.635Z,6.38
2023-01-31T16:18:59.207Z,6.39
2023-01-31T16:21:13.654Z,6.40
2023-01-31T16:23:36.371Z,6.42
2023-01-31T16:25:38.229Z,6.41
2023-01-31T16:27:44.879Z,6.41
2023-01-31T16:29:51.514Z,6.40
2023-01-31T16:31:55.358Z,6.42
2023-01-31T16:34:00.510Z,6.43
2023-01-31T16:36:13.591Z,6.45
2023-01-31T16:38:20.223Z,6.44
2023-01-31T16:40:29.647Z,6.42
2023-01-31T16:42:32.719Z,6.37
2023-01-31T16:44:40.100Z,6.34
2023-01-31T16:46:43.514Z,6.29
2023-01-31T16:49:01.972Z,6.28
2023-01-31T16:51:36.881Z,6.26
2023-01-31T16:53:38.520Z,6.21
2023-01-31T16:55:41.922Z,6.16
2023-01-31T16:57:44.488Z,6.14
2023-01-31T16:59:49.510Z,6.11
2023-01-31T17:02:00.757Z,6.10
2023-01-31T17:04:16.282Z,6.11
2023-01-31T17:06:21.132Z,6.09
2023-01-31T17:08:23.211Z,6.08
2023-01-31T17:10:28.079Z,6.04
2023-01-31T17:12:34.005Z,6.05
2023-01-31T17:14:35.694Z,6.05
2023-01-31T17:16:37.520Z,6.07
2023-01-31T17:18:39.545Z,6.06
2023-01-31T17:20:44.023Z,6.09
2023-01-31T17:22:56.903Z,6.11
2023-01-31T17:25:02.785Z,6.14
2023-01-31T17:27:04.563Z,6.17
2023-01-31T17:29:07.749Z,6.17
2023-01-31T17:31:17.896Z,6.24
2023-01-31T17:33:19.561Z,6.28
2023-01-31T17:35:29.736Z,6.33
2023-01-31T17:37:32.162Z,6.35
2023-01-31T17:39:34.161Z,6.25
2023-01-31T17:41:37.854Z,6.13
2023-01-31T17:43:39.665Z,6.12
2023-01-31T17:45:42.687Z,6.01
2023-01-31T17:47:44.977Z,5.86
2023-01-31T17:52:03.501Z,5.64
2023-01-31T17:54:05.347Z,5.52
2023-01-31T17:56:07.695Z,5.46
2023-01-31T17:58:13.851Z,5.37
2023-01-31T18:00:19.772Z,5.30
2023-01-31T18:02:24.171Z,5.23
2023-01-31T18:04:25.870Z,5.18
2023-01-31T18:06:27.645Z,5.11
2023-01-31T18:08:29.634Z,5.06
2023-01-31T18:10:32.196Z,5.02
2023-01-31T18:12:35.511Z,4.98
2023-01-31T18:14:38.096Z,4.96
2023-01-31T18:16:40.369Z,4.92
2023-01-31T18:18:44.338Z,4.88
2023-01-31T18:20:48.474Z,4.87
2023-01-31T18:22:50.616Z,4.85
2023-01-31T18:24:52.459Z,4.85
2023-01-31T18:26:54.131Z,4.84
2023-01-31T18:28:56.252Z,4.83
2023-01-31T18:31:01.886Z,4.81
2023-01-31T18:33:03.805Z,4.79
2023-01-31T18:35:08.353Z,4.76
2023-01-31T18:37:10.689Z,4.76
2023-01-31T18:39:12.657Z,4.75
2023-01-31T18:41:16.567Z,4.74
2023-01-31T18:43:18.820Z,4.74
2023-01-31T18:45:20.870Z,4.73
2023-01-31T18:47:22.945Z,4.73
2023-01-31T18:49:24.759Z,4.70
2023-01-31T18:51:28.025Z,4.72
2023-01-31T18:53:32.523Z,4.72
2023-01-31T18:55:34.608Z,4.71
2023-01-31T18:57:36.275Z,4.72
2023-01-31T18:59:39.424Z,4.73
2023-01-31T19:01:43.211Z,4.71
2023-01-31T19:03:47.448Z,4.72
2023-01-31T19:05:49.076Z,4.72
2023-01-31T19:07:52.280Z,4.74
2023-01-31T19:09:54.015Z,4.73
2023-01-31T19:11:55.699Z,4.75
2023-01-31T19:13:58.129Z,4.75
2023-01-31T19:16:02.481Z,4.74
2023-01-31T19:18:04.705Z,4.78
2023-01-31T19:20:07.606Z,4.80
2023-01-31T19:22:09.462Z,4.80
2023-01-31T19:24:14.542Z,4.81
2023-01-31T19:26:17.836Z,4.81
2023-01-31T19:28:20.287Z,4.83
2023-01-31T19:30:22.236Z,4.84
2023-01-31T19:32:23.852Z,4.85
2023-01-31T19:34:25.635Z,4.87
2023-01-31T19:36:29.393Z,4.91
2023-01-31T19:38:31.023Z,4.90
2023-01-31T19:40:34.668Z,4.91
2023-01-31T19:42:36.300Z,4.89
2023-01-31T19:44:38.182Z,4.87
2023-01-31T19:46:40.166Z,4.91
2023-01-31T19:48:41.930Z,4.95
2023-01-31T19:50:43.475Z,4.97
2023-01-31T19:52:45.460Z,4.98
2023-01-31T19:54:47.227Z,5.02
2023-01-31T19:56:50.401Z,5.03
2023-01-31T19:58:52.393Z,5.02
2023-01-31T20:00:54.044Z,5.04
2023-01-31T20:02:55.627Z,5.06
2023-01-31T20:04:57.906Z,5.08
2023-01-31T20:06:59.701Z,5.07
2023-01-31T20:09:03.151Z,5.09
2023-01-31T20:11:06.263Z,5.09
2023-01-31T20:13:09.498Z,5.10
2023-01-31T20:15:11.810Z,5.13
2023-01-31T20:17:13.408Z,5.13
2023-01-31T20:19:15.303Z,5.15
2023-01-31T20:21:18.531Z,5.15
2023-01-31T20:23:20.683Z,5.17
2023-01-31T20:25:22.708Z,5.18
2023-01-31T20:27:25.999Z,5.19
2023-01-31T20:29:29.152Z,5.19
2023-01-31T20:31:30.970Z,5.23
2023-01-31T20:33:32.906Z,5.24
2023-01-31T20:35:34.899Z,5.24
2023-01-31T20:37:36.393Z,5.27
2023-01-31T20:39:38.047Z,5.30
2023-01-31T20:41:40.568Z,5.32
2023-01-31T20:43:42.587Z,5.33
2023-01-31T20:45:45.926Z,5.35
2023-01-31T20:47:47.527Z,5.38
2023-01-31T20:49:49.446Z,5.40
2023-01-31T20:51:51.454Z,5.42
2023-01-31T20:53:53.060Z,5.43
2023-01-31T20:55:57.992Z,5.45
2023-01-31T20:57:59.599Z,5.47
2023-01-31T21:00:01.373Z,5.48
2023-01-31T21:02:04.484Z,5.48
2023-01-31T21:04:06.028Z,5.49
2023-01-31T21:06:08.807Z,5.51
2023-01-31T21:08:10.595Z,5.52
2023-01-31T21:10:13.663Z,5.52
2023-01-31T21:12:15.341Z,5.52
2023-01-31T21:14:16.966Z,5.53
2023-01-31T21:16:18.995Z,5.52
2023-01-31T21:18:24.838Z,5.54
2023-01-31T21:20:26.621Z,5.54
2023-01-31T21:22:30.358Z,5.54
2023-01-31T21:24:32.013Z,5.55
2023-01-31T21:26:34.005Z,5.56
2023-01-31T21:28:36.285Z,5.55
2023-01-31T21:30:38.569Z,5.56
2023-01-31T21:32:40.467Z,5.58
2023-01-31T21:34:43.587Z,5.56
2023-01-31T21:36:45.915Z,5.57
2023-01-31T21:38:48.160Z,5.58
2023-01-31T21:40:49.831Z,5.56
2023-01-31T21:42:51.960Z,5.57
2023-01-31T21:44:53.578Z,5.56
2023-01-31T21:46:56.656Z,5.55
2023-01-31T21:48:59.660Z,5.56
2023-01-31T21:51:07.602Z,5.56
2023-01-31T21:53:10.719Z,5.56
2023-01-31T21:55:12.506Z,5.58
2023-01-31T21:57:14.107Z,5.60
2023-01-31T21:59:16.001Z,5.59
2023-01-31T22:01:20.233Z,5.59
2023-01-31T22:03:22.281Z,5.59
2023-01-31T22:05:23.933Z,5.61
2023-01-31T22:07:27.412Z,5.61
2023-01-31T22:09:28.979Z,5.59
2023-01-31T22:11:31.163Z,5.59
2023-01-31T22:13:33.196Z,5.60
2023-01-31T22:15:34.905Z,5.62
2023-01-31T22:17:36.613Z,5.62
2023-01-31T22:19:38.666Z,5.61
2023-01-31T22:21:42.022Z,5.59
2023-01-31T22:23:48.663Z,5.59
2023-01-31T22:25:51.826Z,5.59
2023-01-31T22:27:53.680Z,5.60
2023-01-31T22:30:00.886Z,5.59
2023-01-31T22:32:08.399Z,5.57
2023-01-31T22:34:13.541Z,5.56
2023-01-31T22:36:18.836Z,5.55
2023-01-31T22:38:21.109Z,5.53
2023-01-31T22:40:24.972Z,5.54
2023-01-31T22:42:28.717Z,5.52
2023-01-31T22:44:30.313Z,5.51
2023-01-31T22:46:32.116Z,5.52
2023-01-31T22:48:35.263Z,5.50
2023-01-31T22:50:37.084Z,5.50
2023-01-31T22:52:38.972Z,5.51
2023-01-31T22:54:40.631Z,5.51
2023-01-31T22:56:44.117Z,5.51
2023-01-31T22:58:46.674Z,5.49
2023-01-31T23:00:48.745Z,5.49
2023-01-31T23:02:50.501Z,5.49
2023-01-31T23:04:52.148Z,5.49
2023-01-31T23:06:54.046Z,5.47
2023-01-31T23:08:56.123Z,5.50
2023-01-31T23:11:03.296Z,5.49
2023-01-31T23:13:07.312Z,5.47
2023-01-31T23:15:11.080Z,5.48
2023-01-31T23:17:13.166Z,5.45
2023-01-31T23:19:15.920Z,5.45
2023-01-31T23:21:21.671Z,5.45
2023-01-31T23:23:26.533Z,5.44
2023-01-31T23:25:29.453Z,5.42
2023-01-31T23:27:31.412Z,5.44
2023-01-31T23:29:35.096Z,5.42
2023-01-31T23:31:37.276Z,5.40
2023-01-31T23:33:39.034Z,5.42
2023-01-31T23:35:41.104Z,5.40
2023-01-31T23:37:42.924Z,5.40
2023-01-31T23:39:48.497Z,5.38
2023-01-31T23:41:50.262Z,5.36
2023-01-31T23:43:51.978Z,5.36
2023-01-31T23:45:55.409Z,5.35
2023-01-31T23:47:57.231Z,5.31
2023-01-31T23:49:59.049Z,5.33
2023-01-31T23:52:00.879Z,5.30
2023-01-31T23:54:02.546Z,5.30
2023-01-31T23:56:04.572Z,5.29
2023-01-31T23:58:06.461Z,5.28
